createdAt,value
2019-02-10T00:02:19.223Z,67.62
2019-02-10T00:04:49.044Z,67.44
2019-02-10T00:07:18.565Z,67.44
2019-02-10T00:09:48.246Z,67.81
2019-02-10T00:12:17.828Z,68.13
2019-02-10T00:14:47.629Z,68.08
2019-02-10T00:17:17.552Z,67.38
2019-02-10T00:19:47.128Z,66.58
2019-02-10T00:22:16.800Z,66.97
2019-02-10T00:24:46.510Z,67.65
2019-02-10T00:27:16.127Z,68.05
2019-02-10T00:29:45.730Z,68.26
2019-02-10T00:32:15.263Z,68.32
2019-02-10T00:34:44.962Z,68.39
2019-02-10T00:37:14.727Z,68.22
2019-02-10T00:39:44.309Z,68.14
2019-02-10T00:42:14.119Z,68.03
2019-02-10T00:44:43.704Z,68.03
2019-02-10T00:47:13.198Z,67.96
2019-02-10T00:49:42.823Z,68.20
2019-02-10T00:52:12.633Z,68.14
2019-02-10T00:54:42.467Z,68.02
2019-02-10T00:57:12.195Z,68.02
2019-02-10T00:59:41.849Z,68.05
2019-02-10T01:02:11.442Z,68.33
2019-02-10T01:04:41.063Z,68.14
2019-02-10T01:07:10.788Z,68.51
2019-02-10T01:09:40.658Z,68.46
2019-02-10T01:12:10.489Z,68.33
2019-02-10T01:14:40.127Z,68.46
2019-02-10T01:17:09.847Z,68.36
2019-02-10T01:19:39.373Z,68.38
2019-02-10T01:22:09.970Z,68.72
2019-02-10T01:24:39.425Z,68.94
2019-02-10T01:27:09.001Z,68.80
2019-02-10T01:29:38.735Z,68.39
2019-02-10T01:32:08.417Z,68.41
2019-02-10T01:34:38.035Z,68.49
2019-02-10T01:37:07.637Z,68.41
2019-02-10T01:39:37.286Z,68.05
2019-02-10T01:42:07.113Z,68.22
2019-02-10T01:44:36.646Z,68.25
2019-02-10T01:47:06.265Z,68.84
2019-02-10T01:49:35.985Z,68.54
2019-02-10T01:52:05.819Z,68.29
2019-02-10T01:54:35.490Z,68.08
2019-02-10T01:57:05.236Z,68.41
2019-02-10T01:59:34.885Z,68.82
2019-02-10T02:02:04.528Z,69.00
2019-02-10T02:04:34.033Z,68.65
2019-02-10T02:07:03.629Z,68.68
2019-02-10T02:09:33.253Z,68.58
2019-02-10T02:12:03.255Z,68.51
2019-02-10T02:14:32.924Z,68.24
2019-02-10T02:17:02.629Z,67.76
2019-02-10T02:19:32.310Z,67.79
2019-02-10T02:22:01.981Z,67.39
2019-02-10T02:24:31.568Z,67.07
2019-02-10T02:27:01.488Z,67.58
2019-02-10T02:29:31.175Z,67.86
2019-02-10T02:32:00.931Z,68.37
2019-02-10T02:34:30.677Z,68.37
2019-02-10T02:37:08.054Z,67.79
2019-02-10T02:39:33.513Z,68.32
2019-02-10T02:42:03.179Z,68.42
2019-02-10T02:44:33.447Z,69.03
2019-02-10T02:47:03.200Z,68.86
2019-02-10T02:49:32.874Z,69.22
2019-02-10T02:52:02.522Z,68.62
2019-02-10T02:54:32.285Z,68.74
2019-02-10T02:57:01.924Z,69.25
2019-02-10T02:59:31.429Z,69.13
2019-02-10T03:02:01.054Z,69.03
2019-02-10T03:04:30.739Z,68.45
2019-02-10T03:07:00.534Z,68.48
2019-02-10T03:09:30.297Z,68.98
2019-02-10T03:11:59.901Z,69.20
2019-02-10T03:14:29.686Z,69.08
2019-02-10T03:16:59.160Z,69.05
2019-02-10T03:19:28.817Z,68.75
2019-02-10T03:21:58.451Z,69.05
2019-02-10T03:24:28.025Z,69.36
2019-02-10T03:26:57.711Z,68.60
2019-02-10T03:29:27.361Z,69.32
2019-02-10T03:31:57.112Z,69.43
2019-02-10T03:34:26.878Z,69.41
2019-02-10T03:36:56.461Z,70.22
2019-02-10T03:39:26.342Z,69.56
2019-02-10T03:41:55.903Z,69.97
2019-02-10T03:44:25.569Z,69.65
2019-02-10T03:46:55.282Z,70.17
2019-02-10T03:49:25.077Z,69.82
2019-02-10T03:51:54.820Z,69.84
2019-02-10T03:54:24.642Z,69.75
2019-02-10T03:56:54.284Z,69.71
2019-02-10T03:59:24.037Z,69.34
2019-02-10T04:01:53.753Z,69.33
2019-02-10T04:04:23.341Z,69.04
2019-02-10T04:06:53.014Z,68.57
2019-02-10T04:09:22.692Z,68.95
2019-02-10T04:11:52.376Z,69.11
2019-02-10T04:14:22.019Z,68.93
2019-02-10T04:16:51.631Z,68.67
2019-02-10T04:19:21.251Z,68.88
2019-02-10T04:21:50.961Z,68.08
2019-02-10T04:24:20.754Z,67.85
2019-02-10T04:26:50.431Z,67.77
2019-02-10T04:29:20.030Z,67.36
2019-02-10T04:31:49.781Z,67.54
2019-02-10T04:34:19.406Z,67.18
2019-02-10T04:36:48.934Z,67.00
2019-02-10T04:39:18.713Z,67.10
2019-02-10T04:41:48.398Z,67.41
2019-02-10T04:44:18.069Z,67.91
2019-02-10T04:46:47.725Z,68.21
2019-02-10T04:49:17.417Z,68.52
2019-02-10T04:51:47.190Z,68.64
2019-02-10T04:54:16.782Z,68.32
2019-02-10T04:56:46.401Z,67.66
2019-02-10T04:59:16.129Z,67.50
2019-02-10T05:01:45.848Z,67.45
2019-02-10T05:04:15.565Z,67.26
2019-02-10T05:06:45.202Z,67.53
2019-02-10T05:09:14.902Z,67.40
2019-02-10T05:11:44.849Z,67.23
2019-02-10T05:14:14.524Z,66.93
2019-02-10T05:16:45.014Z,67.21
2019-02-10T05:19:14.797Z,68.30
2019-02-10T05:21:44.458Z,68.40
2019-02-10T05:24:14.055Z,67.43
2019-02-10T05:26:43.681Z,67.29
2019-02-10T05:29:13.361Z,66.99
2019-02-10T05:31:43.018Z,67.44
2019-02-10T05:34:12.518Z,67.23
2019-02-10T05:36:42.228Z,67.54
2019-02-10T05:39:11.843Z,66.88
2019-02-10T05:41:41.492Z,66.57
2019-02-10T05:44:11.255Z,66.47
2019-02-10T05:46:40.874Z,65.63
2019-02-10T05:49:10.465Z,65.93
2019-02-10T05:51:40.127Z,66.08
2019-02-10T05:54:09.650Z,65.80
2019-02-10T05:56:39.179Z,65.53
2019-02-10T05:59:08.957Z,65.39
2019-02-10T06:01:59.128Z,65.18
2019-02-10T06:04:29.222Z,65.93
2019-02-10T06:07:01.056Z,66.54
2019-02-10T06:09:30.790Z,67.07
2019-02-10T06:12:00.294Z,66.71
2019-02-10T06:14:30.534Z,66.15
2019-02-10T06:17:00.391Z,65.69
2019-02-10T06:19:30.042Z,65.81
2019-02-10T06:21:59.786Z,66.53
2019-02-10T06:24:29.399Z,66.63
2019-02-10T06:26:59.059Z,66.42
2019-02-10T06:29:28.852Z,66.87
2019-02-10T06:31:58.440Z,66.69
2019-02-10T06:34:28.163Z,66.53
2019-02-10T06:36:57.781Z,66.84
2019-02-10T06:39:27.564Z,62.45
2019-02-10T06:41:57.134Z,56.76
2019-02-10T06:44:26.903Z,56.76
2019-02-10T06:46:56.659Z,49.62
2019-02-10T06:49:26.275Z,44.38
2019-02-10T06:51:55.797Z,41.08
2019-02-10T06:54:25.496Z,37.17
2019-02-10T06:56:55.214Z,35.94
2019-02-10T06:59:56.239Z,33.71
2019-02-10T07:02:35.432Z,31.92
2019-02-10T07:05:05.581Z,30.83
2019-02-10T07:07:35.351Z,30.45
2019-02-10T07:10:05.438Z,28.88
2019-02-10T07:12:50.945Z,28.10
2019-02-10T07:15:56.152Z,26.86
2019-02-10T07:19:01.403Z,26.21
2019-02-10T07:21:40.424Z,25.82
2019-02-10T07:24:38.944Z,23.81
2019-02-10T07:27:29.126Z,24.13
2019-02-10T07:30:40.842Z,23.38
2019-02-10T07:33:20.603Z,22.57
2019-02-10T07:36:06.640Z,21.63
2019-02-10T07:39:17.322Z,20.91
2019-02-10T07:42:22.371Z,20.46
2019-02-10T07:45:14.272Z,19.73
2019-02-10T07:48:10.039Z,19.36
2019-02-10T07:51:16.175Z,18.48
2019-02-10T07:54:13.559Z,18.49
2019-02-10T07:56:58.454Z,17.08
2019-02-10T08:00:27.105Z,16.92
2019-02-10T08:03:28.540Z,16.75
2019-02-10T08:06:21.225Z,16.78
2019-02-10T08:09:27.331Z,17.17
2019-02-10T08:12:49.830Z,15.94
2019-02-10T08:15:53.593Z,15.18
2019-02-10T08:19:19.324Z,16.04
2019-02-10T08:22:16.392Z,14.97
2019-02-10T08:25:38.908Z,14.51
2019-02-10T08:28:34.305Z,13.73
2019-02-10T08:31:40.337Z,13.57
2019-02-10T08:34:20.950Z,12.72
2019-02-10T08:37:30.412Z,12.85
2019-02-10T08:40:29.986Z,12.45
2019-02-10T08:43:32.695Z,13.67
2019-02-10T08:47:04.495Z,13.13
2019-02-10T08:50:09.710Z,13.43
2019-02-10T08:52:51.766Z,12.74
2019-02-10T08:55:17.326Z,11.72
2019-02-10T08:57:47.014Z,11.80
2019-02-10T09:00:16.646Z,11.30
2019-02-10T09:02:46.294Z,11.72
2019-02-10T09:05:15.902Z,11.54
2019-02-10T09:07:45.518Z,12.81
2019-02-10T09:10:15.250Z,12.41
2019-02-10T09:12:44.869Z,13.20
2019-02-10T09:15:14.649Z,12.83
2019-02-10T09:17:44.360Z,12.37
2019-02-10T09:20:14.119Z,12.15
2019-02-10T09:22:43.737Z,11.79
2019-02-10T09:25:13.453Z,12.13
2019-02-10T09:27:43.148Z,11.67
2019-02-10T09:30:14.100Z,11.06
2019-02-10T09:32:43.751Z,11.93
2019-02-10T09:35:13.791Z,12.12
2019-02-10T09:37:43.281Z,12.14
2019-02-10T09:40:13.248Z,12.09
2019-02-10T09:42:44.555Z,12.78
2019-02-10T09:45:16.116Z,12.53
2019-02-10T09:47:45.851Z,13.30
2019-02-10T09:50:17.806Z,12.95
2019-02-10T09:52:47.552Z,12.81
2019-02-10T09:55:17.246Z,12.86
2019-02-10T09:57:46.940Z,14.02
2019-02-10T10:00:16.720Z,15.61
2019-02-10T10:02:46.376Z,17.27
2019-02-10T10:05:15.990Z,18.91
2019-02-10T10:07:45.814Z,19.92
2019-02-10T10:10:15.660Z,19.92
2019-02-10T10:12:45.452Z,19.51
2019-02-10T10:15:17.134Z,18.20
2019-02-10T10:17:46.817Z,16.73
2019-02-10T10:20:17.317Z,16.07
2019-02-10T10:22:47.932Z,15.59
2019-02-10T10:25:17.629Z,15.16
2019-02-10T10:27:47.528Z,13.85
2019-02-10T10:30:17.592Z,13.15
2019-02-10T10:32:47.403Z,13.68
2019-02-10T10:35:17.283Z,13.37
2019-02-10T10:37:49.933Z,12.58
2019-02-10T10:40:19.754Z,12.80
2019-02-10T10:42:49.394Z,12.28
2019-02-10T10:45:18.880Z,11.47
2019-02-10T10:47:48.522Z,11.68
2019-02-10T10:50:18.122Z,11.21
2019-02-10T10:52:47.874Z,11.04
2019-02-10T10:55:17.543Z,11.45
2019-02-10T10:57:47.426Z,12.11
2019-02-10T11:00:17.071Z,11.28
2019-02-10T11:02:46.779Z,10.74
2019-02-10T11:05:16.473Z,9.87
2019-02-10T11:07:46.048Z,10.10
2019-02-10T11:10:15.883Z,10.70
2019-02-10T11:12:45.637Z,9.83
2019-02-10T11:15:15.442Z,10.71
2019-02-10T11:17:45.240Z,10.73
2019-02-10T11:20:14.936Z,10.37
2019-02-10T11:22:44.702Z,10.23
2019-02-10T11:25:14.402Z,10.85
2019-02-10T11:27:44.569Z,10.75
2019-02-10T11:30:14.493Z,10.53
2019-02-10T11:32:44.308Z,10.32
2019-02-10T11:35:13.864Z,9.73
2019-02-10T11:37:43.459Z,9.75
2019-02-10T11:40:13.344Z,8.90
2019-02-10T11:42:42.939Z,9.16
2019-02-10T11:45:12.568Z,9.52
2019-02-10T11:47:42.123Z,10.08
2019-02-10T11:50:11.987Z,10.11
2019-02-10T11:52:41.790Z,10.51
2019-02-10T11:55:12.225Z,11.81
2019-02-10T11:57:41.920Z,12.43
2019-02-10T12:00:12.281Z,12.84
2019-02-10T12:02:41.888Z,13.23
2019-02-10T12:05:11.962Z,15.08
2019-02-10T12:07:41.668Z,16.42
2019-02-10T12:10:11.672Z,17.60
2019-02-10T12:12:41.285Z,19.39
2019-02-10T12:15:11.279Z,20.19
2019-02-10T12:17:40.938Z,21.42
2019-02-10T12:20:11.238Z,22.10
2019-02-10T12:22:40.880Z,23.40
2019-02-10T12:25:11.250Z,23.92
2019-02-10T12:27:40.939Z,25.14
2019-02-10T12:30:12.611Z,24.92
2019-02-10T12:32:42.380Z,25.22
2019-02-10T12:35:12.121Z,26.09
2019-02-10T12:37:41.662Z,26.21
2019-02-10T12:40:11.837Z,26.53
2019-02-10T12:42:41.555Z,26.29
2019-02-10T12:45:11.469Z,26.25
2019-02-10T12:47:41.138Z,24.88
2019-02-10T12:50:11.541Z,25.54
2019-02-10T12:52:41.204Z,26.29
2019-02-10T12:55:11.111Z,26.08
2019-02-10T12:57:40.661Z,25.60
2019-02-10T13:00:13.195Z,24.39
2019-02-10T13:02:42.951Z,25.43
2019-02-10T13:05:12.578Z,24.05
2019-02-10T13:07:42.316Z,24.78
2019-02-10T13:10:13.020Z,25.24
2019-02-10T13:12:42.510Z,26.02
2019-02-10T13:15:12.235Z,26.00
2019-02-10T13:17:42.136Z,26.08
2019-02-10T13:20:11.865Z,25.71
2019-02-10T13:22:41.628Z,25.50
2019-02-10T13:25:11.426Z,25.21
2019-02-10T13:27:41.139Z,24.87
2019-02-10T13:30:12.449Z,24.77
2019-02-10T13:32:42.146Z,26.23
2019-02-10T13:35:12.092Z,25.83
2019-02-10T13:37:41.695Z,25.08
2019-02-10T13:40:16.711Z,26.09
2019-02-10T13:42:45.874Z,26.95
2019-02-10T13:45:15.554Z,26.67
2019-02-10T13:47:45.109Z,26.34
2019-02-10T13:50:15.836Z,26.00
2019-02-10T13:52:45.515Z,26.45
2019-02-10T13:55:15.340Z,26.14
2019-02-10T13:57:45.105Z,26.26
2019-02-10T14:00:16.790Z,26.55
2019-02-10T14:02:46.462Z,28.19
2019-02-10T14:05:16.210Z,28.98
2019-02-10T14:07:45.938Z,28.29
2019-02-10T14:10:16.107Z,28.45
2019-02-10T14:12:45.866Z,28.21
2019-02-10T14:15:15.880Z,28.40
2019-02-10T14:17:45.569Z,29.32
2019-02-10T14:20:16.413Z,28.66
2019-02-10T14:22:46.257Z,28.51
2019-02-10T14:25:16.015Z,28.76
2019-02-10T14:27:45.915Z,29.73
2019-02-10T14:30:17.090Z,29.09
2019-02-10T14:32:47.116Z,29.42
2019-02-10T14:35:17.142Z,29.50
2019-02-10T14:37:47.911Z,29.85
2019-02-10T14:40:18.088Z,30.19
2019-02-10T14:42:48.844Z,30.10
2019-02-10T14:45:19.641Z,30.16
2019-02-10T14:47:49.993Z,30.17
2019-02-10T14:50:21.801Z,30.26
2019-02-10T14:52:52.848Z,30.26
2019-02-10T14:55:23.674Z,30.43
2019-02-10T14:57:54.179Z,30.61
2019-02-10T15:00:25.109Z,31.08
2019-02-10T15:02:56.817Z,30.88
2019-02-10T15:05:27.094Z,31.15
2019-02-10T15:07:56.948Z,31.08
2019-02-10T15:10:26.952Z,31.32
2019-02-10T15:12:57.059Z,31.31
2019-02-10T15:15:27.133Z,31.30
2019-02-10T15:17:57.293Z,31.75
2019-02-10T15:20:27.354Z,31.79
2019-02-10T15:22:57.508Z,32.15
2019-02-10T15:25:28.171Z,32.28
2019-02-10T15:27:58.308Z,32.52
2019-02-10T15:30:28.566Z,32.71
2019-02-10T15:32:58.602Z,33.38
2019-02-10T15:35:28.388Z,33.43
2019-02-10T15:37:58.258Z,34.46
2019-02-10T15:40:28.686Z,33.73
2019-02-10T15:42:59.287Z,34.87
2019-02-10T15:45:30.066Z,34.48
2019-02-10T15:48:00.134Z,34.76
2019-02-10T15:50:30.426Z,34.97
2019-02-10T15:53:02.100Z,35.43
2019-02-10T15:55:32.155Z,36.78
2019-02-10T15:58:02.811Z,35.93
2019-02-10T16:00:33.476Z,36.76
2019-02-10T16:03:04.594Z,37.94
2019-02-10T16:05:35.622Z,37.44
2019-02-10T16:08:06.723Z,38.37
2019-02-10T16:10:37.304Z,38.74
2019-02-10T16:13:08.293Z,39.75
2019-02-10T16:15:38.952Z,40.96
2019-02-10T16:18:10.350Z,41.59
2019-02-10T16:20:40.929Z,42.23
2019-02-10T16:23:11.809Z,42.62
2019-02-10T16:25:42.865Z,43.00
2019-02-10T16:28:13.762Z,44.00
2019-02-10T16:30:44.781Z,43.93
2019-02-10T16:33:15.764Z,44.36
2019-02-10T16:35:47.184Z,44.54
2019-02-10T16:38:18.326Z,45.42
2019-02-10T16:40:49.677Z,45.18
2019-02-10T16:43:21.025Z,45.57
2019-02-10T16:45:52.021Z,45.75
2019-02-10T16:48:23.226Z,46.02
2019-02-10T16:50:54.834Z,46.51
2019-02-10T16:53:25.757Z,46.33
2019-02-10T16:55:56.812Z,46.43
2019-02-10T16:58:27.899Z,46.19
2019-02-10T17:00:58.590Z,46.30
2019-02-10T17:03:29.222Z,46.46
2019-02-10T17:06:00.067Z,46.56
2019-02-10T17:08:31.025Z,46.62
2019-02-10T17:11:01.789Z,46.63
2019-02-10T17:13:32.761Z,46.76
2019-02-10T17:16:05.350Z,46.63
2019-02-10T17:18:36.316Z,46.06
2019-02-10T17:21:07.481Z,45.93
2019-02-10T17:23:38.790Z,46.47
2019-02-10T17:26:09.798Z,46.36
2019-02-10T17:28:40.899Z,46.72
2019-02-10T17:31:11.992Z,46.76
2019-02-10T17:33:43.232Z,46.37
2019-02-10T17:36:14.236Z,46.53
2019-02-10T17:38:45.180Z,46.78
2019-02-10T17:41:23.133Z,47.07
2019-02-10T17:43:54.401Z,47.45
2019-02-10T17:46:25.565Z,47.31
2019-02-10T17:48:58.073Z,47.52
2019-02-10T17:51:29.370Z,47.44
2019-02-10T17:54:00.420Z,47.53
2019-02-10T17:56:31.611Z,47.65
2019-02-10T17:59:02.570Z,47.74
2019-02-10T18:01:33.851Z,48.24
2019-02-10T18:04:05.148Z,48.41
2019-02-10T18:06:37.272Z,48.25
2019-02-10T18:09:09.312Z,49.23
2019-02-10T18:11:41.924Z,49.23
2019-02-10T18:14:35.190Z,49.22
2019-02-10T18:17:31.880Z,49.29
2019-02-10T18:20:13.387Z,49.41
2019-02-10T18:23:13.007Z,49.49
2019-02-10T18:26:09.431Z,49.38
2019-02-10T18:28:58.187Z,49.25
2019-02-10T18:31:48.641Z,49.50
2019-02-10T18:34:29.970Z,49.55
2019-02-10T18:37:23.675Z,48.64
2019-02-10T18:40:18.799Z,49.01
2019-02-10T18:43:08.788Z,48.35
2019-02-10T18:46:07.672Z,48.59
2019-02-10T18:48:57.438Z,49.82
2019-02-10T18:51:40.262Z,49.97
2019-02-10T18:54:29.867Z,50.29
2019-02-10T18:57:19.824Z,49.89
2019-02-10T19:00:29.498Z,49.81
2019-02-10T19:03:06.518Z,50.54
2019-02-10T19:05:55.872Z,50.54
2019-02-10T19:08:48.604Z,51.42
2019-02-10T19:11:50.731Z,52.45
2019-02-10T19:14:46.843Z,52.45
2019-02-10T19:17:36.085Z,52.51
2019-02-10T19:20:27.903Z,52.94
2019-02-10T19:23:10.871Z,52.11
2019-02-10T19:26:15.869Z,54.46
2019-02-10T19:29:04.977Z,53.89
2019-02-10T19:31:58.210Z,53.89
2019-02-10T19:34:54.873Z,53.16
2019-02-10T19:37:52.821Z,53.56
2019-02-10T19:40:48.452Z,53.56
2019-02-10T19:43:36.907Z,53.07
2019-02-10T19:46:26.682Z,53.71
2019-02-10T19:49:22.026Z,53.73
2019-02-10T19:52:24.600Z,53.51
2019-02-10T19:55:15.182Z,53.16
2019-02-10T19:58:05.505Z,53.13
2019-02-10T20:00:47.065Z,53.14
2019-02-10T20:03:38.321Z,53.45
2019-02-10T20:06:17.053Z,53.34
2019-02-10T20:09:10.570Z,53.34
2019-02-10T20:12:04.364Z,53.77
2019-02-10T20:14:45.078Z,53.13
2019-02-10T20:17:42.110Z,53.90
2019-02-10T20:20:29.712Z,54.81
2019-02-10T20:23:25.697Z,53.33
2019-02-10T20:26:18.941Z,53.96
2019-02-10T20:29:07.198Z,54.68
2019-02-10T20:31:50.838Z,53.45
2019-02-10T20:34:42.396Z,53.12
2019-02-10T20:37:42.405Z,54.00
2019-02-10T20:40:30.247Z,54.49
2019-02-10T20:43:32.490Z,54.49
2019-02-10T20:46:36.288Z,54.36
2019-02-10T20:49:38.707Z,54.61
2019-02-10T20:52:27.467Z,54.86
2019-02-10T20:55:13.462Z,54.86
2019-02-10T20:58:01.302Z,54.98
2019-02-10T21:00:58.019Z,56.38
2019-02-10T21:03:50.472Z,55.74
2019-02-10T21:06:40.777Z,56.17
2019-02-10T21:09:20.331Z,56.47
2019-02-10T21:12:11.771Z,56.42
2019-02-10T21:15:02.154Z,57.69
2019-02-10T21:17:51.826Z,57.42
2019-02-10T21:20:42.463Z,57.67
2019-02-10T21:23:38.267Z,57.67
2019-02-10T21:26:33.868Z,57.28
2019-02-10T21:29:25.989Z,57.12
2019-02-10T21:32:13.466Z,57.46
2019-02-10T21:34:48.742Z,57.81
2019-02-10T21:37:23.227Z,57.02
2019-02-10T21:40:14.634Z,57.03
2019-02-10T21:43:01.556Z,56.81
2019-02-10T21:45:50.171Z,58.07
2019-02-10T21:48:26.176Z,57.78
2019-02-10T21:50:56.008Z,57.55
2019-02-10T21:53:25.699Z,57.64
2019-02-10T21:55:55.402Z,57.59
2019-02-10T21:58:25.061Z,57.76
2019-02-10T22:00:54.805Z,58.55
2019-02-10T22:03:24.520Z,57.46
2019-02-10T22:05:54.148Z,57.56
2019-02-10T22:08:23.821Z,58.45
2019-02-10T22:10:53.582Z,58.97
2019-02-10T22:13:23.305Z,58.51
2019-02-10T22:15:52.934Z,59.19
2019-02-10T22:18:22.590Z,59.31
2019-02-10T22:20:52.219Z,58.92
2019-02-10T22:23:21.935Z,58.93
2019-02-10T22:25:51.775Z,59.54
2019-02-10T22:28:21.569Z,59.27
2019-02-10T22:30:51.414Z,58.75
2019-02-10T22:33:21.172Z,59.26
2019-02-10T22:35:50.878Z,59.12
2019-02-10T22:38:20.408Z,58.56
2019-02-10T22:40:50.034Z,58.94
2019-02-10T22:43:19.761Z,58.90
2019-02-10T22:45:49.642Z,59.13
2019-02-10T22:48:19.312Z,59.06
2019-02-10T22:50:49.114Z,59.25
2019-02-10T22:53:18.861Z,59.16
2019-02-10T22:55:48.423Z,59.91
2019-02-10T22:58:18.180Z,59.91
2019-02-10T23:00:59.017Z,59.87
2019-02-10T23:03:28.885Z,60.68
2019-02-10T23:05:58.463Z,60.25
2019-02-10T23:08:28.501Z,61.30
2019-02-10T23:10:58.222Z,61.30
2019-02-10T23:13:28.002Z,61.37
2019-02-10T23:15:57.660Z,60.64
2019-02-10T23:18:27.381Z,60.74
2019-02-10T23:20:57.080Z,60.78
2019-02-10T23:23:26.706Z,61.48
2019-02-10T23:25:56.536Z,60.97
2019-02-10T23:28:26.405Z,61.09
2019-02-10T23:30:56.136Z,61.80
2019-02-10T23:33:25.967Z,62.11
2019-02-10T23:35:55.680Z,61.82
2019-02-10T23:38:25.522Z,61.75
2019-02-10T23:40:55.199Z,61.59
2019-02-10T23:43:24.775Z,61.13
2019-02-10T23:45:54.647Z,61.05
2019-02-10T23:48:24.332Z,61.07
2019-02-10T23:50:53.944Z,61.93
2019-02-10T23:53:23.639Z,62.31
2019-02-10T23:55:53.362Z,61.81
2019-02-10T23:58:23.130Z,61.18
